logo
Rechercher aéroport 
image banner adimage banner adimage banner ad
image banner ad

FAKN - Kruger Mpumalanga International

Situé à Nelspruit, South Africa

ICAO - FAKN, IATA - MQP

Données fournies par Airmate  

Information générale

Coordonnées: S25°23'30" E31°5'57"
Élévation : 2829 feet MSL.
Variation magnétique : -19° East
Voir autres Aéroports à Mpumalanga

Données opérationnelles

Special qualification required
Heure actuelle UTC:
Heure actuelle locale:
Météo
METAR: FAKN 180100Z AUTO 03001KT //// // ////// 17/16 Q1025
Voir NOTAMs / SUP AIP / TFR affectant cet aéroport [VIEW]
Fréquences de communication: [VIEW]

Pistes:

Identifiant RWYQFULongueur (ft)Largeur (ft)SurfaceLDA (ft)
0534°8539133ASPH10171
23214°8539133ASPH9636

Coordonnées de l'aéroport

Adresse: Nelspruit South Africa

Vue satellite de FAKN